sensor_id;sensor_type;location;lat;lon;timestamp;pressure;altitude;pressure_sealevel;temperature;humidity
8398;BME280;4236;54.504;9.588;2022-11-20T00:00:42;101177.84;;;1.40;100.00
8398;BME280;4236;54.504;9.588;2022-11-20T00:03:10;101184.50;;;1.44;100.00
8398;BME280;4236;54.504;9.588;2022-11-20T00:05:37;101188.59;;;1.37;100.00
8398;BME280;4236;54.504;9.588;2022-11-20T00:08:05;101181.69;;;1.36;100.00
8398;BME280;4236;54.504;9.588;2022-11-20T00:10:36;101184.41;;;1.35;100.00
8398;BME280;4236;54.504;9.588;2022-11-20T00:13:03;101184.66;;;1.32;100.00
8398;BME280;4236;54.504;9.588;2022-11-20T00:15:33;101176.94;;;1.30;100.00
8398;BME280;4236;54.504;9.588;2022-11-20T00:18:00;101177.03;;;1.29;100.00
8398;BME280;4236;54.504;9.588;2022-11-20T00:20:28;101178.59;;;1.31;100.00
8398;BME280;4236;54.504;9.588;2022-11-20T00:22:56;101168.09;;;1.31;100.00
8398;BME280;4236;54.504;9.588;2022-11-20T00:25:23;101163.09;;;1.28;100.00
8398;BME280;4236;54.504;9.588;2022-11-20T00:27:51;101164.75;;;1.29;100.00
8398;BME280;4236;54.504;9.588;2022-11-20T00:30:19;101155.31;;;1.27;100.00
8398;BME280;4236;54.504;9.588;2022-11-20T00:32:48;101167.63;;;1.26;100.00
8398;BME280;4236;54.504;9.588;2022-11-20T00:35:15;101166.91;;;1.24;100.00
8398;BME280;4236;54.504;9.588;2022-11-20T00:37:43;101169.66;;;1.23;100.00
8398;BME280;4236;54.504;9.588;2022-11-20T00:40:11;101171.72;;;1.19;100.00
8398;BME280;4236;54.504;9.588;2022-11-20T00:42:39;101172.09;;;1.15;100.00
8398;BME280;4236;54.504;9.588;2022-11-20T00:45:07;101173.31;;;1.10;100.00
8398;BME280;4236;54.504;9.588;2022-11-20T00:47:35;101168.31;;;1.07;100.00
8398;BME280;4236;54.504;9.588;2022-11-20T00:50:04;101172.59;;;1.08;100.00
8398;BME280;4236;54.504;9.588;2022-11-20T00:52:32;101169.50;;;1.03;100.00
8398;BME280;4236;54.504;9.588;2022-11-20T00:54:59;101177.16;;;1.06;100.00
8398;BME280;4236;54.504;9.588;2022-11-20T00:57:27;101166.63;;;1.06;100.00
8398;BME280;4236;54.504;9.588;2022-11-20T00:59:54;101165.53;;;1.09;100.00
8398;BME280;4236;54.504;9.588;2022-11-20T01:02:22;101166.25;;;1.11;100.00
8398;BME280;4236;54.504;9.588;2022-11-20T01:04:50;101166.50;;;1.08;100.00
8398;BME280;4236;54.504;9.588;2022-11-20T01:07:19;101159.34;;;1.10;100.00
8398;BME280;4236;54.504;9.588;2022-11-20T01:09:46;101165.44;;;1.10;100.00
8398;BME280;4236;54.504;9.588;2022-11-20T01:12:14;101162.09;;;1.08;100.00
8398;BME280;4236;54.504;9.588;2022-11-20T01:14:41;101164.59;;;1.10;100.00
8398;BME280;4236;54.504;9.588;2022-11-20T01:17:09;101156.31;;;1.15;100.00
8398;BME280;4236;54.504;9.588;2022-11-20T01:19:37;101156.06;;;1.18;100.00
8398;BME280;4236;54.504;9.588;2022-11-20T01:22:04;101160.63;;;1.16;100.00
8398;BME280;4236;54.504;9.588;2022-11-20T01:24:33;101143.88;;;1.17;100.00
8398;BME280;4236;54.504;9.588;2022-11-20T01:27:01;101150.38;;;1.13;100.00
8398;BME280;4236;54.504;9.588;2022-11-20T01:29:28;101144.53;;;1.09;100.00
8398;BME280;4236;54.504;9.588;2022-11-20T01:31:56;101149.53;;;1.12;100.00
8398;BME280;4236;54.504;9.588;2022-11-20T01:34:24;101144.97;;;1.14;100.00
8398;BME280;4236;54.504;9.588;2022-11-20T01:36:52;101132.81;;;1.13;100.00
8398;BME280;4236;54.504;9.588;2022-11-20T01:39:21;101135.06;;;1.18;100.00
8398;BME280;4236;54.504;9.588;2022-11-20T01:41:53;101135.31;;;1.15;100.00
8398;BME280;4236;54.504;9.588;2022-11-20T01:44:54;101132.69;;;1.15;100.00
8398;BME280;4236;54.504;9.588;2022-11-20T01:47:27;101129.22;;;1.14;100.00
8398;BME280;4236;54.504;9.588;2022-11-20T01:49:59;101133.78;;;1.12;100.00
8398;BME280;4236;54.504;9.588;2022-11-20T01:52:32;101132.69;;;1.15;100.00
8398;BME280;4236;54.504;9.588;2022-11-20T01:55:04;101123.28;;;1.12;100.00
8398;BME280;4236;54.504;9.588;2022-11-20T01:57:37;101126.50;;;1.16;100.00
8398;BME280;4236;54.504;9.588;2022-11-20T02:00:08;101123.97;;;1.14;100.00
8398;BME280;4236;54.504;9.588;2022-11-20T02:02:37;101123.03;;;1.15;100.00
8398;BME280;4236;54.504;9.588;2022-11-20T02:05:14;101118.03;;;1.12;100.00
8398;BME280;4236;54.504;9.588;2022-11-20T02:07:42;101123.59;;;1.19;100.00
8398;BME280;4236;54.504;9.588;2022-11-20T02:10:11;101114.03;;;1.18;100.00
8398;BME280;4236;54.504;9.588;2022-11-20T02:12:40;101107.59;;;1.22;100.00
8398;BME280;4236;54.504;9.588;2022-11-20T02:15:25;101100.06;;;1.17;100.00
8398;BME280;4236;54.504;9.588;2022-11-20T02:17:55;101098.28;;;1.18;100.00
8398;BME280;4236;54.504;9.588;2022-11-20T02:20:23;101094.81;;;1.17;100.00
8398;BME280;4236;54.504;9.588;2022-11-20T02:22:55;101089.56;;;1.17;100.00
8398;BME280;4236;54.504;9.588;2022-11-20T02:25:26;101088.72;;;1.17;100.00
8398;BME280;4236;54.504;9.588;2022-11-20T02:27:55;101090.41;;;1.18;100.00
8398;BME280;4236;54.504;9.588;2022-11-20T02:30:23;101093.53;;;1.11;100.00
8398;BME280;4236;54.504;9.588;2022-11-20T02:32:51;101089.13;;;1.12;100.00
8398;BME280;4236;54.504;9.588;2022-11-20T02:35:39;101089.53;;;1.07;100.00
8398;BME280;4236;54.504;9.588;2022-11-20T02:38:06;101087.44;;;1.11;100.00
8398;BME280;4236;54.504;9.588;2022-11-20T02:40:35;101094.13;;;1.15;100.00
8398;BME280;4236;54.504;9.588;2022-11-20T02:43:03;101088.44;;;1.10;100.00
8398;BME280;4236;54.504;9.588;2022-11-20T02:45:31;101088.94;;;1.04;100.00
8398;BME280;4236;54.504;9.588;2022-11-20T02:47:58;101089.53;;;1.07;100.00
8398;BME280;4236;54.504;9.588;2022-11-20T02:50:26;101079.03;;;1.07;100.00
8398;BME280;4236;54.504;9.588;2022-11-20T02:52:54;101082.34;;;1.09;100.00
8398;BME280;4236;54.504;9.588;2022-11-20T02:55:21;101083.28;;;1.08;100.00
8398;BME280;4236;54.504;9.588;2022-11-20T02:57:50;101088.44;;;1.10;100.00
8398;BME280;4236;54.504;9.588;2022-11-20T03:00:18;101089.63;;;1.06;100.00
8398;BME280;4236;54.504;9.588;2022-11-20T03:02:46;101086.75;;;1.09;100.00
8398;BME280;4236;54.504;9.588;2022-11-20T03:05:14;101092.16;;;1.07;100.00
8398;BME280;4236;54.504;9.588;2022-11-20T03:07:43;101094.63;;;1.09;100.00
8398;BME280;4236;54.504;9.588;2022-11-20T03:10:10;101093.97;;;1.17;100.00
8398;BME280;4236;54.504;9.588;2022-11-20T03:12:38;101085.75;;;1.21;100.00
8398;BME280;4236;54.504;9.588;2022-11-20T03:15:08;101092.91;;;1.19;100.00
8398;BME280;4236;54.504;9.588;2022-11-20T03:17:36;101096.25;;;1.21;100.00
8398;BME280;4236;54.504;9.588;2022-11-20T03:20:05;101090.84;;;1.23;100.00
8398;BME280;4236;54.504;9.588;2022-11-20T03:22:33;101090.16;;;1.21;100.00
8398;BME280;4236;54.504;9.588;2022-11-20T03:25:00;101084.78;;;1.22;100.00
8398;BME280;4236;54.504;9.588;2022-11-20T03:27:32;101086.44;;;1.23;100.00
8398;BME280;4236;54.504;9.588;2022-11-20T03:29:59;101081.44;;;1.20;100.00
8398;BME280;4236;54.504;9.588;2022-11-20T03:32:29;101088.38;;;1.21;100.00
8398;BME280;4236;54.504;9.588;2022-11-20T03:34:56;101085.47;;;1.24;100.00
8398;BME280;4236;54.504;9.588;2022-11-20T03:37:24;101083.81;;;1.23;100.00
8398;BME280;4236;54.504;9.588;2022-11-20T03:39:51;101077.59;;;1.24;100.00
8398;BME280;4236;54.504;9.588;2022-11-20T03:42:19;101078.47;;;1.13;100.00
8398;BME280;4236;54.504;9.588;2022-11-20T03:45:05;101081.94;;;1.14;100.00
8398;BME280;4236;54.504;9.588;2022-11-20T03:47:34;101086.75;;;1.09;100.00
8398;BME280;4236;54.504;9.588;2022-11-20T03:50:02;101080.56;;;1.10;100.00
8398;BME280;4236;54.504;9.588;2022-11-20T03:52:30;101084.38;;;1.06;100.00
8398;BME280;4236;54.504;9.588;2022-11-20T03:54:57;101082.44;;;1.08;100.00
8398;BME280;4236;54.504;9.588;2022-11-20T03:57:25;101081.38;;;1.10;100.00
8398;BME280;4236;54.504;9.588;2022-11-20T03:59:52;101080.56;;;1.10;100.00
8398;BME280;4236;54.504;9.588;2022-11-20T04:02:20;101079.81;;;1.08;100.00
8398;BME280;4236;54.504;9.588;2022-11-20T04:04:49;101077.09;;;1.09;100.00
8398;BME280;4236;54.504;9.588;2022-11-20T04:07:17;101076.69;;;1.14;100.00
8398;BME280;4236;54.504;9.588;2022-11-20T04:09:44;101081.09;;;1.13;100.00
8398;BME280;4236;54.504;9.588;2022-11-20T04:12:12;101078.09;;;1.18;100.00
8398;BME280;4236;54.504;9.588;2022-11-20T04:14:39;101079.66;;;1.21;100.00
8398;BME280;4236;54.504;9.588;2022-11-20T04:17:07;101076.91;;;1.22;100.00
8398;BME280;4236;54.504;9.588;2022-11-20T04:19:35;101076.91;;;1.22;100.00
8398;BME280;4236;54.504;9.588;2022-11-20T04:22:04;101076.31;;;1.19;100.00
8398;BME280;4236;54.504;9.588;2022-11-20T04:24:31;101070.94;;;1.20;100.00
8398;BME280;4236;54.504;9.588;2022-11-20T04:26:59;101077.00;;;1.21;100.00
8398;BME280;4236;54.504;9.588;2022-11-20T04:29:26;101075.22;;;1.21;100.00
8398;BME280;4236;54.504;9.588;2022-11-20T04:31:54;101072.47;;;1.23;100.00
8398;BME280;4236;54.504;9.588;2022-11-20T04:34:21;101080.66;;;1.29;100.00
8398;BME280;4236;54.504;9.588;2022-11-20T04:36:49;101075.56;;;1.28;100.00
8398;BME280;4236;54.504;9.588;2022-11-20T04:39:18;101072.09;;;1.27;100.00
8398;BME280;4236;54.504;9.588;2022-11-20T04:41:46;101068.63;;;1.27;100.00
8398;BME280;4236;54.504;9.588;2022-11-20T04:44:14;101069.72;;;1.24;100.00
8398;BME280;4236;54.504;9.588;2022-11-20T04:46:42;101065.16;;;1.26;100.00
8398;BME280;4236;54.504;9.588;2022-11-20T04:49:10;101062.53;;;1.26;100.00
8398;BME280;4236;54.504;9.588;2022-11-20T04:51:38;101070.66;;;1.23;100.00
8398;BME280;4236;54.504;9.588;2022-11-20T04:54:06;101067.34;;;1.21;100.00
8398;BME280;4236;54.504;9.588;2022-11-20T04:56:35;101063.78;;;1.22;100.00
8398;BME280;4236;54.504;9.588;2022-11-20T04:59:02;101066.41;;;1.22;100.00
8398;BME280;4236;54.504;9.588;2022-11-20T05:01:30;101051.59;;;1.21;100.00
8398;BME280;4236;54.504;9.588;2022-11-20T05:03:59;101059.47;;;1.21;100.00
8398;BME280;4236;54.504;9.588;2022-11-20T05:06:26;101060.41;;;1.20;100.00
8398;BME280;4236;54.504;9.588;2022-11-20T05:08:54;101055.06;;;1.22;100.00
8398;BME280;4236;54.504;9.588;2022-11-20T05:11:21;101054.91;;;1.23;100.00
8398;BME280;4236;54.504;9.588;2022-11-20T05:13:51;101043.56;;;1.23;100.00
8398;BME280;4236;54.504;9.588;2022-11-20T05:16:20;101057.41;;;1.25;100.00
8398;BME280;4236;54.504;9.588;2022-11-20T05:18:49;101045.38;;;1.22;100.00
8398;BME280;4236;54.504;9.588;2022-11-20T05:21:18;101047.16;;;1.22;100.00
8398;BME280;4236;54.504;9.588;2022-11-20T05:23:46;101046.06;;;1.24;100.00
8398;BME280;4236;54.504;9.588;2022-11-20T05:26:17;101038.31;;;1.23;100.00
8398;BME280;4236;54.504;9.588;2022-11-20T05:28:45;101042.88;;;1.21;100.00
8398;BME280;4236;54.504;9.588;2022-11-20T05:31:16;101051.84;;;1.18;100.00
8398;BME280;4236;54.504;9.588;2022-11-20T05:33:52;101047.44;;;1.19;100.00
8398;BME280;4236;54.504;9.588;2022-11-20T05:36:19;101043.53;;;1.13;100.00
8398;BME280;4236;54.504;9.588;2022-11-20T05:38:47;101043.78;;;1.10;100.00
8398;BME280;4236;54.504;9.588;2022-11-20T05:41:19;101038.78;;;1.07;100.00
8398;BME280;4236;54.504;9.588;2022-11-20T05:43:48;101042.63;;;1.03;100.00
8398;BME280;4236;54.504;9.588;2022-11-20T05:46:19;101034.16;;;0.99;100.00
8398;BME280;4236;54.504;9.588;2022-11-20T05:48:53;101038.28;;;0.92;100.00
8398;BME280;4236;54.504;9.588;2022-11-20T05:51:21;101034.09;;;0.90;100.00
8398;BME280;4236;54.504;9.588;2022-11-20T05:53:49;101027.88;;;0.91;100.00
8398;BME280;4236;54.504;9.588;2022-11-20T05:56:18;101024.69;;;0.87;100.00
8398;BME280;4236;54.504;9.588;2022-11-20T05:58:46;101033.13;;;0.91;100.00
8398;BME280;4236;54.504;9.588;2022-11-20T06:01:20;101035.50;;;0.94;100.00
8398;BME280;4236;54.504;9.588;2022-11-20T06:03:49;101032.03;;;0.93;100.00
8398;BME280;4236;54.504;9.588;2022-11-20T06:06:18;101029.31;;;0.95;100.00
8398;BME280;4236;54.504;9.588;2022-11-20T06:08:46;101024.06;;;0.95;100.00
8398;BME280;4236;54.504;9.588;2022-11-20T06:11:15;101028.56;;;0.93;100.00
8398;BME280;4236;54.504;9.588;2022-11-20T06:13:43;101028.31;;;0.96;100.00
8398;BME280;4236;54.504;9.588;2022-11-20T06:16:13;101020.69;;;0.93;100.00
8398;BME280;4236;54.504;9.588;2022-11-20T06:18:41;101024.75;;;0.97;100.00
8398;BME280;4236;54.504;9.588;2022-11-20T06:21:12;101026.94;;;0.92;100.00
8398;BME280;4236;54.504;9.588;2022-11-20T06:23:41;101023.31;;;0.93;100.00
8398;BME280;4236;54.504;9.588;2022-11-20T06:26:10;101014.75;;;0.91;100.00
8398;BME280;4236;54.504;9.588;2022-11-20T06:28:38;101028.97;;;0.88;100.00
8398;BME280;4236;54.504;9.588;2022-11-20T06:31:06;101028.13;;;0.88;100.00
8398;BME280;4236;54.504;9.588;2022-11-20T06:33:34;101025.75;;;0.85;100.00
8398;BME280;4236;54.504;9.588;2022-11-20T06:36:03;101031.00;;;0.85;100.00
8398;BME280;4236;54.504;9.588;2022-11-20T06:38:37;101031.00;;;0.85;100.00
8398;BME280;4236;54.504;9.588;2022-11-20T06:41:06;101030.91;;;0.86;100.00
8398;BME280;4236;54.504;9.588;2022-11-20T06:43:33;101023.84;;;0.87;100.00
8398;BME280;4236;54.504;9.588;2022-11-20T06:46:01;101032.56;;;0.87;100.00
8398;BME280;4236;54.504;9.588;2022-11-20T06:48:29;101025.66;;;0.86;100.00
8398;BME280;4236;54.504;9.588;2022-11-20T06:50:57;101024.81;;;0.86;100.00
8398;BME280;4236;54.504;9.588;2022-11-20T06:53:25;101025.66;;;0.86;100.00
8398;BME280;4236;54.504;9.588;2022-11-20T06:55:55;101030.66;;;0.89;100.00
8398;BME280;4236;54.504;9.588;2022-11-20T06:58:26;101021.94;;;0.89;100.00
8398;BME280;4236;54.504;9.588;2022-11-20T07:00:53;101013.91;;;0.90;100.00
8398;BME280;4236;54.504;9.588;2022-11-20T07:03:21;101024.31;;;0.92;100.00
8398;BME280;4236;54.504;9.588;2022-11-20T07:05:49;101018.31;;;0.90;100.00
8398;BME280;4236;54.504;9.588;2022-11-20T07:08:16;101016.78;;;0.87;100.00
8398;BME280;4236;54.504;9.588;2022-11-20T07:10:44;101010.97;;;0.84;100.00
8398;BME280;4236;54.504;9.588;2022-11-20T07:13:13;101013.72;;;0.82;100.00
8398;BME280;4236;54.504;9.588;2022-11-20T07:15:41;101005.84;;;0.82;100.00
8398;BME280;4236;54.504;9.588;2022-11-20T07:18:08;101001.69;;;0.80;100.00
8398;BME280;4236;54.504;9.588;2022-11-20T07:20:36;100999.19;;;0.78;100.00
8398;BME280;4236;54.504;9.588;2022-11-20T07:23:04;101000.97;;;0.78;100.00
8398;BME280;4236;54.504;9.588;2022-11-20T07:25:31;101005.41;;;0.77;100.00
8398;BME280;4236;54.504;9.588;2022-11-20T07:28:00;101002.06;;;0.75;100.00
8398;BME280;4236;54.504;9.588;2022-11-20T07:30:29;101007.91;;;0.79;100.00
8398;BME280;4236;54.504;9.588;2022-11-20T07:32:57;101013.16;;;0.79;100.00
8398;BME280;4236;54.504;9.588;2022-11-20T07:35:25;101006.38;;;0.76;100.00
8398;BME280;4236;54.504;9.588;2022-11-20T07:37:53;101010.41;;;0.80;100.00
8398;BME280;4236;54.504;9.588;2022-11-20T07:40:20;101016.78;;;0.87;100.00
8398;BME280;4236;54.504;9.588;2022-11-20T07:42:48;101020.59;;;0.94;100.00
8398;BME280;4236;54.504;9.588;2022-11-20T07:45:16;101017.13;;;0.94;100.00
8398;BME280;4236;54.504;9.588;2022-11-20T07:47:45;101028.28;;;1.07;100.00
8398;BME280;4236;54.504;9.588;2022-11-20T07:50:13;101026.03;;;1.02;100.00
8398;BME280;4236;54.504;9.588;2022-11-20T07:52:41;101039.22;;;1.12;100.00
8398;BME280;4236;54.504;9.588;2022-11-20T07:55:09;101024.16;;;1.14;100.00
8398;BME280;4236;54.504;9.588;2022-11-20T07:57:37;101023.22;;;1.15;100.00
8398;BME280;4236;54.504;9.588;2022-11-20T08:00:07;101020.00;;;1.11;100.00
8398;BME280;4236;54.504;9.588;2022-11-20T08:02:36;101030.81;;;1.18;100.00
8398;BME280;4236;54.504;9.588;2022-11-20T08:05:07;101028.91;;;1.20;100.00
8398;BME280;4236;54.504;9.588;2022-11-20T08:07:36;101031.66;;;1.19;100.00
8398;BME280;4236;54.504;9.588;2022-11-20T08:10:04;101030.44;;;1.23;100.00
8398;BME280;4236;54.504;9.588;2022-11-20T08:12:32;101022.28;;;1.26;100.00
8398;BME280;4236;54.504;9.588;2022-11-20T08:15:17;101018.59;;;1.28;100.00
8398;BME280;4236;54.504;9.588;2022-11-20T08:17:45;101022.16;;;1.27;100.00
8398;BME280;4236;54.504;9.588;2022-11-20T08:20:34;101025.91;;;1.25;100.00
8398;BME280;4236;54.504;9.588;2022-11-20T08:23:04;101025.50;;;1.29;100.00
8398;BME280;4236;54.504;9.588;2022-11-20T08:25:33;101021.22;;;1.28;100.00
8398;BME280;4236;54.504;9.588;2022-11-20T08:28:03;101021.06;;;1.30;100.00
8398;BME280;4236;54.504;9.588;2022-11-20T08:30:45;101028.75;;;1.42;100.00
8398;BME280;4236;54.504;9.588;2022-11-20T08:33:13;101027.97;;;1.51;100.00
8398;BME280;4236;54.504;9.588;2022-11-20T08:35:41;101033.91;;;1.53;100.00
8398;BME280;4236;54.504;9.588;2022-11-20T08:38:09;101033.78;;;1.55;100.00
8398;BME280;4236;54.504;9.588;2022-11-20T08:40:37;101031.84;;;1.57;100.00
8398;BME280;4236;54.504;9.588;2022-11-20T08:43:04;101033.97;;;1.63;100.00
8398;BME280;4236;54.504;9.588;2022-11-20T08:45:32;101035.91;;;1.71;100.00
8398;BME280;4236;54.504;9.588;2022-11-20T08:48:01;101040.09;;;1.73;100.00
8398;BME280;4236;54.504;9.588;2022-11-20T08:50:29;101039.69;;;1.78;100.00
8398;BME280;4236;54.504;9.588;2022-11-20T08:53:03;101030.28;;;1.75;100.00
8398;BME280;4236;54.504;9.588;2022-11-20T08:55:31;101032.22;;;1.83;100.00
8398;BME280;4236;54.504;9.588;2022-11-20T08:58:03;101031.41;;;1.82;100.00
8398;BME280;4236;54.504;9.588;2022-11-20T09:00:30;101034.78;;;1.94;100.00
8398;BME280;4236;54.504;9.588;2022-11-20T09:02:59;101037.41;;;1.94;100.00
8398;BME280;4236;54.504;9.588;2022-11-20T09:05:28;101038.75;;;1.88;100.00
8398;BME280;4236;54.504;9.588;2022-11-20T09:07:56;101038.47;;;1.91;100.00
8398;BME280;4236;54.504;9.588;2022-11-20T09:10:25;101036.25;;;1.87;100.00
8398;BME280;4236;54.504;9.588;2022-11-20T09:12:53;101038.63;;;1.90;100.00
8398;BME280;4236;54.504;9.588;2022-11-20T09:15:21;101038.09;;;1.96;100.00
8398;BME280;4236;54.504;9.588;2022-11-20T09:17:52;101048.66;;;2.05;100.00
8398;BME280;4236;54.504;9.588;2022-11-20T09:20:20;101044.38;;;2.14;100.00
8398;BME280;4236;54.504;9.588;2022-11-20T09:22:48;101061.69;;;2.16;100.00
8398;BME280;4236;54.504;9.588;2022-11-20T09:25:16;101053.38;;;2.11;100.00
8398;BME280;4236;54.504;9.588;2022-11-20T09:27:45;101052.81;;;2.08;100.00
8398;BME280;4236;54.504;9.588;2022-11-20T09:30:14;101057.75;;;2.01;100.00
8398;BME280;4236;54.504;9.588;2022-11-20T09:32:42;101061.06;;;2.03;100.00
8398;BME280;4236;54.504;9.588;2022-11-20T09:35:10;101061.06;;;2.03;100.00
8398;BME280;4236;54.504;9.588;2022-11-20T09:37:38;101052.19;;;1.95;100.00
8398;BME280;4236;54.504;9.588;2022-11-20T09:40:08;101055.81;;;1.94;100.00
8398;BME280;4236;54.504;9.588;2022-11-20T09:42:47;101047.19;;;1.92;100.00
8398;BME280;4236;54.504;9.588;2022-11-20T09:45:23;101047.19;;;1.92;100.00
8398;BME280;4236;54.504;9.588;2022-11-20T09:48:14;101052.78;;;1.98;100.00
8398;BME280;4236;54.504;9.588;2022-11-20T09:50:47;101053.91;;;2.05;100.00
8398;BME280;4236;54.504;9.588;2022-11-20T09:53:24;101060.13;;;2.04;100.00
8398;BME280;4236;54.504;9.588;2022-11-20T09:55:54;101059.56;;;2.01;100.00
8398;BME280;4236;54.504;9.588;2022-11-20T09:58:29;101041.81;;;1.93;100.00
8398;BME280;4236;54.504;9.588;2022-11-20T10:01:05;101055.50;;;1.87;100.00
8398;BME280;4236;54.504;9.588;2022-11-20T10:03:41;101051.47;;;1.83;100.00
8398;BME280;4236;54.504;9.588;2022-11-20T10:06:15;101050.25;;;1.87;100.00
8398;BME280;4236;54.504;9.588;2022-11-20T10:08:47;101044.72;;;1.90;100.00
8398;BME280;4236;54.504;9.588;2022-11-20T10:11:21;101040.84;;;1.85;100.00
8398;BME280;4236;54.504;9.588;2022-11-20T10:14:00;101047.88;;;1.84;100.00
8398;BME280;4236;54.504;9.588;2022-11-20T10:16:37;101038.84;;;1.77;100.00
8398;BME280;4236;54.504;9.588;2022-11-20T10:19:22;101042.75;;;1.83;100.00
8398;BME280;4236;54.504;9.588;2022-11-20T10:22:01;101031.44;;;1.92;100.00
8398;BME280;4236;54.504;9.588;2022-11-20T10:24:48;101041.06;;;2.12;100.00
8398;BME280;4236;54.504;9.588;2022-11-20T10:27:36;101035.34;;;2.07;100.00
8398;BME280;4236;54.504;9.588;2022-11-20T10:30:10;101038.44;;;2.12;100.00
8398;BME280;4236;54.504;9.588;2022-11-20T10:32:40;101030.41;;;2.23;100.00
8398;BME280;4236;54.504;9.588;2022-11-20T10:35:18;101029.56;;;2.22;100.00
8398;BME280;4236;54.504;9.588;2022-11-20T10:37:50;101023.75;;;2.19;100.00
8398;BME280;4236;54.504;9.588;2022-11-20T10:40:23;101030.13;;;2.26;100.00
8398;BME280;4236;54.504;9.588;2022-11-20T10:42:56;101019.34;;;2.29;100.00
8398;BME280;4236;54.504;9.588;2022-11-20T10:45:35;101010.75;;;2.46;100.00
8398;BME280;4236;54.504;9.588;2022-11-20T10:48:14;101016.84;;;2.47;100.00
8398;BME280;4236;54.504;9.588;2022-11-20T10:51:03;101013.81;;;2.61;100.00
8398;BME280;4236;54.504;9.588;2022-11-20T10:53:57;101014.63;;;2.61;100.00
8398;BME280;4236;54.504;9.588;2022-11-20T10:56:31;101009.38;;;2.61;100.00
8398;BME280;4236;54.504;9.588;2022-11-20T10:59:26;100996.22;;;2.52;100.00
8398;BME280;4236;54.504;9.588;2022-11-20T11:01:57;101011.31;;;2.59;100.00
8398;BME280;4236;54.504;9.588;2022-11-20T11:04:33;101005.91;;;2.70;100.00
8398;BME280;4236;54.504;9.588;2022-11-20T11:07:07;101004.13;;;2.81;100.00
8398;BME280;4236;54.504;9.588;2022-11-20T11:09:42;100991.63;;;2.83;100.00
8398;BME280;4236;54.504;9.588;2022-11-20T11:12:10;100992.13;;;2.96;100.00
8398;BME280;4236;54.504;9.588;2022-11-20T11:14:43;100992.13;;;2.96;98.58
8398;BME280;4236;54.504;9.588;2022-11-20T11:17:29;100986.31;;;3.02;100.00
8398;BME280;4236;54.504;9.588;2022-11-20T11:20:06;100988.53;;;2.97;100.00
8398;BME280;4236;54.504;9.588;2022-11-20T11:22:43;100981.19;;;3.00;100.00
8398;BME280;4236;54.504;9.588;2022-11-20T11:25:20;100981.75;;;2.94;100.00
8398;BME280;4236;54.504;9.588;2022-11-20T11:27:50;100975.09;;;2.90;100.00
8398;BME280;4236;54.504;9.588;2022-11-20T11:30:19;100974.41;;;2.88;100.00
8398;BME280;4236;54.504;9.588;2022-11-20T11:32:48;100978.81;;;3.07;100.00
8398;BME280;4236;54.504;9.588;2022-11-20T11:35:22;100983.78;;;3.19;100.00
8398;BME280;4236;54.504;9.588;2022-11-20T11:37:50;100980.53;;;3.35;100.00
8398;BME280;4236;54.504;9.588;2022-11-20T11:40:21;100982.00;;;3.47;100.00
8398;BME280;4236;54.504;9.588;2022-11-20T11:42:54;100977.56;;;3.48;100.00
8398;BME280;4236;54.504;9.588;2022-11-20T11:45:24;100983.94;;;3.55;99.45
8398;BME280;4236;54.504;9.588;2022-11-20T11:47:54;100977.81;;;3.54;98.53
8398;BME280;4236;54.504;9.588;2022-11-20T11:50:24;100977.03;;;3.44;98.03
8398;BME280;4236;54.504;9.588;2022-11-20T11:53:05;100975.16;;;3.64;100.00
8398;BME280;4236;54.504;9.588;2022-11-20T11:55:39;100969.97;;;3.72;99.17
8398;BME280;4236;54.504;9.588;2022-11-20T11:58:16;100974.38;;;3.81;96.91
8398;BME280;4236;54.504;9.588;2022-11-20T12:00:51;100967.16;;;4.01;97.67
8398;BME280;4236;54.504;9.588;2022-11-20T12:03:25;100968.16;;;4.00;95.78
8398;BME280;4236;54.504;9.588;2022-11-20T12:05:57;100967.00;;;4.02;96.28
8398;BME280;4236;54.504;9.588;2022-11-20T12:08:30;100962.47;;;3.95;93.43
8398;BME280;4236;54.504;9.588;2022-11-20T12:11:04;100964.16;;;4.13;94.33
8398;BME280;4236;54.504;9.588;2022-11-20T12:13:42;100956.25;;;4.31;92.20
8398;BME280;4236;54.504;9.588;2022-11-20T12:16:13;100954.13;;;4.34;89.94
8398;BME280;4236;54.504;9.588;2022-11-20T12:18:43;100958.81;;;4.23;89.77
8398;BME280;4236;54.504;9.588;2022-11-20T12:21:18;100948.25;;;4.05;92.68
8398;BME280;4236;54.504;9.588;2022-11-20T12:23:56;100957.91;;;3.97;94.68
8398;BME280;4236;54.504;9.588;2022-11-20T12:26:44;100955.28;;;3.69;93.49
8398;BME280;4236;54.504;9.588;2022-11-20T12:29:22;100966.13;;;3.66;98.03
8398;BME280;4236;54.504;9.588;2022-11-20T12:32:14;100938.84;;;3.48;100.00
8398;BME280;4236;54.504;9.588;2022-11-20T12:34:54;100942.38;;;3.39;100.00
8398;BME280;4236;54.504;9.588;2022-11-20T12:37:33;100943.22;;;3.40;100.00
8398;BME280;4236;54.504;9.588;2022-11-20T12:40:16;100935.22;;;3.22;100.00
8398;BME280;4236;54.504;9.588;2022-11-20T12:42:55;100930.81;;;3.13;100.00
8398;BME280;4236;54.504;9.588;2022-11-20T12:46:00;100930.53;;;3.16;100.00
8398;BME280;4236;54.504;9.588;2022-11-20T12:48:47;100909.84;;;3.21;98.15
8398;BME280;4236;54.504;9.588;2022-11-20T12:51:34;100912.81;;;3.08;94.15
8398;BME280;4236;54.504;9.588;2022-11-20T12:54:40;100906.47;;;3.01;92.60
8398;BME280;4236;54.504;9.588;2022-11-20T12:57:18;100905.91;;;2.98;95.46
8398;BME280;4236;54.504;9.588;2022-11-20T13:02:55;100913.09;;;2.96;97.62
8398;BME280;4236;54.504;9.588;2022-11-20T13:05:31;100894.56;;;2.88;96.23
8398;BME280;4236;54.504;9.588;2022-11-20T13:08:15;100900.09;;;2.94;98.16
8398;BME280;4236;54.504;9.588;2022-11-20T13:10:50;100908.84;;;2.95;100.00
8398;BME280;4236;54.504;9.588;2022-11-20T13:13:23;100909.41;;;2.89;100.00
8398;BME280;4236;54.504;9.588;2022-11-20T13:15:56;100917.03;;;2.92;100.00
8398;BME280;4236;54.504;9.588;2022-11-20T13:18:25;100909.09;;;3.01;100.00
8398;BME280;4236;54.504;9.588;2022-11-20T13:20:53;100915.72;;;3.05;100.00
8398;BME280;4236;54.504;9.588;2022-11-20T13:23:27;100911.38;;;3.14;100.00
8398;BME280;4236;54.504;9.588;2022-11-20T13:26:05;100904.34;;;3.05;97.24
8398;BME280;4236;54.504;9.588;2022-11-20T13:28:34;100900.38;;;3.01;95.55
8398;BME280;4236;54.504;9.588;2022-11-20T13:31:02;100900.38;;;3.01;97.19
8398;BME280;4236;54.504;9.588;2022-11-20T13:33:31;100897.72;;;3.01;98.58
8398;BME280;4236;54.504;9.588;2022-11-20T13:36:02;100903.84;;;3.01;98.50